Terminal Aerodrome Forecast
Issued by NWS

Home | Current Version | Previous Version | Text Only | Print | Product List | Glossary On
Versions: 1 2 3 4 5 6 7 8 9 10 11 12 13 14 15 16 17 18 19 20
000
FTUS41 KLWX 242335
TAFMTN
TAF
KMTN 242335Z 2500/2524 05003KT P6SM -RA OVC040
     FM250300 07012G22KT 5SM -RA OVC010
     FM250400 07012G21KT 5SM -RA OVC008
     FM250700 06011G19KT 3SM -RA OVC003
      AMD NOT SKED 2502/2512=

USA.gov is the U.S. government's official web portal to all federal, state and local government web resources and services.